Time;durP1;ratioP1;P1;durP2;ratioP2;P2;SDS_P1;SDS_P2;PMS_P1;PMS_P2;Temp;Humidity;BMP_temperature;BMP_pressure;BME280_temperature;BME280_humidity;BME280_pressure;Samples;Min_cycle;Max_cycle;Signal;HPM_P1;HPM_P2
2023/12/04 00:01:19;;;;;;;23.70;10.70;;;-4.20;99.90;-5.00;101040.00;;;;4951180;28;87883;-69
2023/12/04 00:03:45;;;;;;;13.90;8.90;;;-4.30;99.90;-5.10;101045.00;;;;4950825;28;107736;-69
2023/12/04 00:06:12;;;;;;;21.30;11.30;;;-4.50;99.90;-5.10;101045.00;;;;4953059;28;88718;-69
2023/12/04 00:08:37;;;;;;;19.47;11.50;;;-4.50;99.90;-5.10;101046.00;;;;4949742;28;91650;-67
2023/12/04 00:11:05;;;;;;;18.87;9.77;;;-4.60;99.90;-5.10;101040.00;;;;4955806;28;87998;-67
2023/12/04 00:13:31;;;;;;;18.20;10.10;;;-4.50;99.90;-5.10;101042.00;;;;4951573;28;88336;-67
2023/12/04 00:15:56;;;;;;;17.13;9.83;;;-4.50;99.90;-5.20;101035.00;;;;4953636;28;96071;-68
2023/12/04 00:18:22;;;;;;;21.00;11.63;;;-4.60;99.90;-5.20;101041.00;;;;4954468;28;116372;-67
2023/12/04 00:20:48;;;;;;;14.73;8.77;;;-4.50;99.90;-5.20;101037.00;;;;4950416;28;110578;-67
2023/12/04 00:23:14;;;;;;;16.90;10.83;;;-4.70;99.90;-5.20;101042.00;;;;4950947;28;107743;-66
2023/12/04 00:25:39;;;;;;;17.87;10.00;;;-4.70;99.90;-5.20;101036.00;;;;4952494;28;117964;-66
2023/12/04 00:28:05;;;;;;;15.70;8.80;;;-4.60;99.90;-5.20;101037.00;;;;4946587;28;117451;-67
2023/12/04 00:30:31;;;;;;;23.60;10.97;;;-4.70;99.90;-5.20;101043.00;;;;4951924;28;112890;-67
2023/12/04 00:32:56;;;;;;;19.20;11.13;;;-4.60;99.90;-5.10;101043.00;;;;4950563;28;107857;-66
2023/12/04 00:35:22;;;;;;;16.27;9.80;;;-4.50;99.90;-5.10;101044.00;;;;4948897;28;114934;-66
2023/12/04 00:37:48;;;;;;;18.27;10.23;;;-4.50;99.90;-5.10;101032.00;;;;4947859;28;117767;-67
2023/12/04 00:40:13;;;;;;;13.77;8.67;;;-4.40;99.90;-5.10;101028.00;;;;4956071;28;97929;-66
2023/12/04 00:42:39;;;;;;;17.53;9.00;;;-4.50;99.90;-5.10;101029.00;;;;4953439;28;87834;-68
2023/12/04 00:45:05;;;;;;;10.50;7.03;;;-4.50;99.90;-5.10;101036.00;;;;4955333;28;88498;-66
2023/12/04 00:47:31;;;;;;;15.57;10.27;;;-4.50;99.90;-5.20;101038.00;;;;4953978;28;88882;-66
2023/12/04 00:49:57;;;;;;;14.33;7.70;;;-4.50;99.90;-5.20;101037.00;;;;4954691;28;110418;-66
2023/12/04 00:52:23;;;;;;;12.77;9.27;;;-4.60;99.90;-5.20;101032.00;;;;4945070;28;106375;-66
2023/12/04 00:54:48;;;;;;;18.07;9.37;;;-4.60;99.90;-5.20;101025.00;;;;4951681;28;88608;-65
2023/12/04 00:57:14;;;;;;;15.73;9.77;;;-4.60;99.90;-5.20;101034.00;;;;4952429;28;117037;-67
2023/12/04 00:59:39;;;;;;;17.63;9.00;;;-4.60;99.90;-5.10;101017.00;;;;4950312;28;111426;-67
2023/12/04 01:02:14;;;;;;;13.87;7.77;;;-4.60;99.90;-5.20;101011.00;;;;4949618;28;106742;-67
2023/12/04 01:04:43;;;;;;;15.37;8.37;;;-4.40;99.90;-5.10;101016.00;;;;4952085;28;97583;-67
2023/12/04 01:07:09;;;;;;;10.23;6.93;;;-4.40;99.90;-5.10;101023.00;;;;4947344;28;88071;-65
2023/12/04 01:09:38;;;;;;;10.33;7.20;;;-4.60;99.90;-5.10;101022.00;;;;4952457;28;88165;-67
2023/12/04 01:12:04;;;;;;;14.27;7.70;;;-4.50;99.90;-5.20;101019.00;;;;4955527;28;108404;-66
2023/12/04 01:14:30;;;;;;;13.60;7.90;;;-4.60;99.90;-5.10;101012.00;;;;4951351;28;88958;-68
2023/12/04 01:16:56;;;;;;;14.50;7.70;;;-4.50;99.90;-5.10;101013.00;;;;4951372;28;116892;-65
2023/12/04 01:19:22;;;;;;;14.70;8.23;;;-4.40;99.90;-5.10;101019.00;;;;4946764;28;110641;-67
2023/12/04 01:21:47;;;;;;;14.47;7.60;;;-4.50;99.90;-5.00;101016.00;;;;4948134;28;109125;-65
2023/12/04 01:24:18;;;;;;;12.07;7.27;;;-4.50;99.90;-5.00;101013.00;;;;4947371;28;117805;-65
2023/12/04 01:26:44;;;;;;;11.67;7.33;;;-4.50;99.90;-5.00;101000.00;;;;4952027;28;88192;-65
2023/12/04 01:29:09;;;;;;;12.53;7.73;;;-4.40;99.90;-5.00;101006.00;;;;4951869;28;99240;-66
2023/12/04 01:31:35;;;;;;;15.20;8.63;;;-4.50;99.90;-5.10;101017.00;;;;4950792;28;108314;-67
2023/12/04 01:34:01;;;;;;;11.50;7.60;;;-4.40;99.90;-5.10;101010.00;;;;4952335;28;88138;-65
2023/12/04 01:36:27;;;;;;;12.43;6.87;;;-4.50;99.90;-5.20;101010.00;;;;4955824;28;98094;-66
2023/12/04 01:38:52;;;;;;;11.20;6.67;;;-4.60;99.90;-5.20;101018.00;;;;4952229;28;108509;-65
2023/12/04 01:41:18;;;;;;;11.30;6.97;;;-4.70;99.90;-5.30;101009.00;;;;4949866;28;108989;-65
2023/12/04 01:43:44;;;;;;;12.83;7.27;;;-4.60;99.90;-5.30;101012.00;;;;4953271;28;88448;-65
2023/12/04 01:46:10;;;;;;;11.73;6.90;;;-4.60;99.90;-5.40;101005.00;;;;4951041;28;101591;-65
2023/12/04 01:48:37;;;;;;;11.70;7.10;;;-4.70;99.90;-5.40;101013.00;;;;4954296;28;109170;-66
2023/12/04 01:51:07;;;;;;;12.83;7.80;;;-4.70;99.90;-5.40;101003.00;;;;4957008;28;111864;-65
2023/12/04 01:53:35;;;;;;;12.40;6.83;;;-4.80;99.90;-5.40;101013.00;;;;4950206;28;88291;-64
2023/12/04 01:56:01;;;;;;;13.47;6.93;;;-4.80;99.90;-5.50;101017.00;;;;4957279;28;88146;-64
2023/12/04 01:58:26;;;;;;;12.87;5.97;;;-4.80;99.90;-5.50;101018.00;;;;4953149;28;109236;-65
2023/12/04 02:00:52;;;;;;;11.60;6.70;;;-4.90;99.90;-5.50;101023.00;;;;4946146;28;109238;-65
2023/12/04 02:03:18;;;;;;;11.63;7.37;;;-4.90;99.90;-5.50;101019.00;;;;4950729;28;116462;-65
2023/12/04 02:05:44;;;;;;;11.07;6.93;;;-4.90;99.90;-5.50;101015.00;;;;4960782;28;88502;-66
2023/12/04 02:08:10;;;;;;;13.60;8.37;;;-5.00;99.90;-5.50;101010.00;;;;4963283;28;106258;-65
2023/12/04 02:10:36;;;;;;;16.13;7.20;;;-4.80;99.90;-5.60;101014.00;;;;4956481;28;103245;-65
2023/12/04 02:13:02;;;;;;;15.10;7.50;;;-4.90;99.90;-5.60;101008.00;;;;4957029;28;118473;-64
2023/12/04 02:15:28;;;;;;;15.33;8.13;;;-4.90;99.90;-5.70;101013.00;;;;4952671;28;109370;-64
2023/12/04 02:17:54;;;;;;;12.00;6.87;;;-5.10;99.90;-5.70;101013.00;;;;4954416;28;109559;-65
2023/12/04 02:20:20;;;;;;;14.73;7.77;;;-5.10;99.90;-5.80;101004.00;;;;4951901;28;109090;-64
2023/12/04 02:22:45;;;;;;;11.30;6.50;;;-5.20;99.90;-5.80;101007.00;;;;4950744;28;119093;-67
2023/12/04 02:25:11;;;;;;;12.87;7.23;;;-5.20;99.90;-5.80;100996.00;;;;4950988;28;115330;-64
2023/12/04 02:27:49;;;;;;;10.83;6.93;;;-5.10;99.90;-5.70;100993.00;;;;4952697;28;88091;-64
2023/12/04 02:30:18;;;;;;;11.53;7.13;;;-5.20;99.90;-5.80;100997.00;;;;4953918;28;102555;-64
2023/12/04 02:32:47;;;;;;;13.30;8.50;;;-5.10;99.90;-5.80;100973.00;;;;4950636;28;88533;-64
2023/12/04 02:35:18;;;;;;;13.83;8.10;;;-5.10;99.90;-5.80;100981.00;;;;4949083;28;111311;-65
2023/12/04 02:37:44;;;;;;;13.33;8.53;;;-5.30;99.90;-5.90;100972.00;;;;4947054;28;100884;-65
2023/12/04 02:40:12;;;;;;;13.17;7.93;;;-5.20;99.90;-5.90;100972.00;;;;4952326;28;107399;-64
2023/12/04 02:42:38;;;;;;;11.23;7.00;;;-5.40;99.90;-6.00;100981.00;;;;4955359;28;88024;-65
2023/12/04 02:45:04;;;;;;;18.23;7.87;;;-5.40;99.90;-6.00;100961.00;;;;4948170;28;99461;-64
2023/12/04 02:47:30;;;;;;;19.53;8.50;;;-5.40;99.90;-6.10;100941.00;;;;4947884;28;102164;-65
2023/12/04 02:49:56;;;;;;;12.60;8.47;;;-5.40;99.90;-6.10;100948.00;;;;4951743;28;109091;-64
2023/12/04 02:52:21;;;;;;;17.67;9.07;;;-5.50;99.90;-6.10;100952.00;;;;4948828;28;117083;-64
2023/12/04 02:54:47;;;;;;;12.47;8.40;;;-5.60;99.90;-6.10;100937.00;;;;4948520;28;116492;-65
2023/12/04 02:57:12;;;;;;;16.07;8.40;;;-5.60;99.90;-6.10;100936.00;;;;4949264;28;89359;-64
2023/12/04 02:59:38;;;;;;;11.97;7.20;;;-5.40;99.90;-6.00;100930.00;;;;4953290;28;108061;-64
2023/12/04 03:02:04;;;;;;;19.30;7.90;;;-5.40;99.90;-6.00;100945.00;;;;4949918;28;117120;-64
2023/12/04 03:04:30;;;;;;;12.83;8.00;;;-5.40;99.90;-6.10;100943.00;;;;4957595;28;111277;-64
2023/12/04 03:06:56;;;;;;;15.37;7.43;;;-5.30;99.90;-6.20;100921.00;;;;4928813;27;87091;-63
2023/12/04 03:09:22;;;;;;;14.80;8.13;;;-5.60;99.90;-6.20;100926.00;;;;4945992;28;88037;-63
2023/12/04 03:11:47;;;;;;;13.77;7.57;;;-5.50;99.90;-6.10;100920.00;;;;4952831;28;118064;-64
2023/12/04 03:14:14;;;;;;;16.63;9.17;;;-5.60;99.90;-6.10;100916.00;;;;4950050;28;116056;-64
2023/12/04 03:16:39;;;;;;;14.63;8.90;;;-5.40;99.90;-6.00;100912.00;;;;4953132;28;87582;-63
2023/12/04 03:19:05;;;;;;;13.23;7.77;;;-5.40;99.90;-5.90;100918.00;;;;4954169;28;100151;-64
2023/12/04 03:21:31;;;;;;;12.47;8.30;;;-5.40;99.90;-5.90;100915.00;;;;4951103;28;93930;-64
2023/12/04 03:23:57;;;;;;;12.53;7.93;;;-5.30;99.90;-5.90;100907.00;;;;4949392;28;87964;-64
2023/12/04 03:26:22;;;;;;;14.37;7.73;;;-5.20;99.90;-5.80;100899.00;;;;4946142;28;110867;-64
2023/12/04 03:28:48;;;;;;;8.63;6.37;;;-5.30;99.90;-5.80;100898.00;;;;4954571;28;110026;-64
2023/12/04 03:31:14;;;;;;;13.33;8.30;;;-5.20;99.90;-5.80;100891.00;;;;4956179;28;88249;-65
2023/12/04 03:33:39;;;;;;;13.27;7.70;;;-5.10;99.90;-5.80;100889.00;;;;4950338;28;115648;-64
2023/12/04 03:36:06;;;;;;;16.43;9.23;;;-5.20;99.90;-5.70;100890.00;;;;4953727;28;108891;-65
2023/12/04 03:38:31;;;;;;;17.33;8.70;;;-5.10;99.90;-5.70;100883.00;;;;4944178;28;89017;-65
2023/12/04 03:40:57;;;;;;;16.17;9.03;;;-5.10;99.90;-5.70;100890.00;;;;4950567;28;117217;-64
2023/12/04 03:43:26;;;;;;;16.63;8.43;;;-5.00;99.90;-5.60;100892.00;;;;4950438;28;116503;-65
2023/12/04 03:45:52;;;;;;;17.43;10.13;;;-5.00;99.90;-5.50;100901.00;;;;4949845;28;87805;-64
2023/12/04 03:48:17;;;;;;;12.07;7.90;;;-4.90;99.90;-5.50;100892.00;;;;4950813;28;108898;-64
2023/12/04 03:50:43;;;;;;;14.73;7.93;;;-4.90;99.90;-5.60;100896.00;;;;4951955;28;117409;-65
2023/12/04 03:53:09;;;;;;;14.30;7.97;;;-4.90;99.90;-5.50;100901.00;;;;4951734;28;117316;-65
2023/12/04 03:55:34;;;;;;;13.10;6.73;;;-5.00;99.90;-5.50;100891.00;;;;4954052;28;112818;-65
2023/12/04 03:58:00;;;;;;;13.30;8.30;;;-4.90;99.90;-5.50;100892.00;;;;4953166;28;107706;-65
2023/12/04 04:00:26;;;;;;;12.87;8.13;;;-5.80;99.90;-5.50;100880.00;;;;4951506;28;116024;-64
2023/12/04 04:02:51;;;;;;;13.27;8.83;;;-5.00;99.90;-5.40;100887.00;;;;4955955;28;116934;-64
2023/12/04 04:05:17;;;;;;;18.13;9.07;;;-4.90;99.90;-5.40;100886.00;;;;4954208;28;87963;-64
2023/12/04 04:07:43;;;;;;;11.93;7.43;;;-5.00;99.90;-5.40;100883.00;;;;4953818;28;109093;-64
2023/12/04 04:10:09;;;;;;;13.30;8.07;;;-4.80;99.90;-5.40;100877.00;;;;4955330;28;117183;-65
2023/12/04 04:12:34;;;;;;;14.77;7.90;;;-4.70;99.90;-5.40;100879.00;;;;4953843;28;114558;-65
2023/12/04 04:15:00;;;;;;;14.40;8.97;;;-4.70;99.90;-5.40;100874.00;;;;4950503;28;109539;-65
2023/12/04 04:17:26;;;;;;;13.03;8.03;;;-4.80;99.90;-5.30;100872.00;;;;4954396;28;95966;-64
2023/12/04 04:19:55;;;;;;;11.73;7.60;;;-4.80;99.90;-5.30;100870.00;;;;4951764;28;87949;-63
2023/12/04 04:22:22;;;;;;;15.57;8.67;;;-4.70;99.90;-5.20;100862.00;;;;4951889;28;88031;-64
2023/12/04 04:24:49;;;;;;;15.93;9.00;;;-4.70;99.90;-5.20;100871.00;;;;4952138;28;87954;-64
2023/12/04 04:27:14;;;;;;;17.43;8.93;;;-4.70;99.90;-5.20;100862.00;;;;4947375;28;88927;-64
2023/12/04 04:29:40;;;;;;;17.63;9.77;;;-4.60;99.90;-5.20;100872.00;;;;4950345;28;117541;-64
2023/12/04 04:32:06;;;;;;;12.03;8.27;;;-4.60;99.90;-5.20;100870.00;;;;4949774;28;118025;-63
2023/12/04 04:34:32;;;;;;;12.87;7.33;;;-4.60;99.90;-5.20;100867.00;;;;4951384;28;87806;-63
2023/12/04 04:36:57;;;;;;;13.63;7.80;;;-3.80;99.90;-5.20;100875.00;;;;4948198;28;104347;-63
2023/12/04 04:39:23;;;;;;;12.43;6.80;;;-4.60;99.90;-5.20;100875.00;;;;4951776;28;88780;-63
2023/12/04 04:41:49;;;;;;;10.47;7.03;;;-4.50;99.90;-5.20;100861.00;;;;4946070;28;118136;-64
2023/12/04 04:44:14;;;;;;;13.27;8.60;;;-4.60;99.90;-5.30;100863.00;;;;4950801;28;110594;-64
2023/12/04 04:46:40;;;;;;;19.33;11.83;;;-4.70;99.90;-5.30;100870.00;;;;4949064;28;109060;-64
2023/12/04 04:49:06;;;;;;;13.63;10.13;;;-4.70;99.90;-5.30;100860.00;;;;4955794;28;116690;-64
2023/12/04 04:51:36;;;;;;;11.57;6.77;;;-4.70;99.90;-5.40;100857.00;;;;4949743;28;89216;-64
2023/12/04 04:54:02;;;;;;;10.20;6.87;;;-4.70;99.90;-5.40;100862.00;;;;4950158;28;88023;-64
2023/12/04 04:56:27;;;;;;;11.70;7.37;;;-4.80;99.90;-5.50;100863.00;;;;4948417;28;99344;-64
2023/12/04 04:58:53;;;;;;;14.17;7.00;;;-4.90;99.90;-5.50;100859.00;;;;4952702;28;118240;-63
2023/12/04 05:01:19;;;;;;;11.17;7.10;;;-4.90;99.90;-5.50;100856.00;;;;4952958;28;118245;-63
2023/12/04 05:03:45;;;;;;;13.03;7.07;;;-4.90;99.90;-5.50;100853.00;;;;4949686;28;93092;-64
2023/12/04 05:06:22;;;;;;;10.97;7.27;;;-4.90;99.90;-5.60;100852.00;;;;4947727;28;109885;-64
2023/12/04 05:08:48;;;;;;;9.93;6.93;;;-4.80;99.90;-5.60;100855.00;;;;4954628;28;88029;-63
2023/12/04 05:11:16;;;;;;;12.73;8.33;;;-5.00;99.90;-5.60;100846.00;;;;4954987;28;89259;-63
2023/12/04 05:13:42;;;;;;;13.80;8.30;;;-5.10;99.90;-5.60;100852.00;;;;4951804;28;109580;-63
2023/12/04 05:16:08;;;;;;;13.27;8.40;;;-5.00;99.90;-5.60;100845.00;;;;4953224;28;106621;-63
2023/12/04 05:18:34;;;;;;;12.33;7.93;;;-4.90;99.90;-5.50;100846.00;;;;4953823;28;109850;-63
2023/12/04 05:21:00;;;;;;;16.37;8.93;;;-4.30;99.90;-5.50;100846.00;;;;4950625;28;116798;-63
2023/12/04 05:23:25;;;;;;;16.33;7.63;;;-4.90;99.90;-5.40;100851.00;;;;4954169;28;110822;-63
2023/12/04 05:25:51;;;;;;;13.60;8.13;;;-4.80;99.90;-5.30;100848.00;;;;4953761;28;108364;-63
2023/12/04 05:28:17;;;;;;;12.07;7.27;;;-4.60;99.90;-5.30;100849.00;;;;4956521;28;87924;-63
2023/12/04 05:30:43;;;;;;;12.27;8.03;;;-4.80;99.90;-5.20;100849.00;;;;4950899;28;117371;-63
2023/12/04 05:33:10;;;;;;;16.40;8.90;;;-4.80;99.90;-5.20;100851.00;;;;4956341;28;87214;-63
2023/12/04 05:35:37;;;;;;;11.23;7.70;;;-4.60;99.90;-5.10;100848.00;;;;4957449;28;109295;-64
2023/12/04 05:38:02;;;;;;;13.13;8.67;;;-4.60;99.90;-5.00;100837.00;;;;4954681;28;88737;-64
2023/12/04 05:40:28;;;;;;;14.13;8.43;;;-4.40;99.90;-5.00;100849.00;;;;4950454;28;117728;-64
2023/12/04 05:42:54;;;;;;;15.90;8.90;;;-4.40;99.90;-4.90;100836.00;;;;4950901;28;109665;-63
2023/12/04 05:45:20;;;;;;;14.13;9.20;;;-4.30;99.90;-4.80;100838.00;;;;4952083;28;108421;-64
2023/12/04 05:47:45;;;;;;;14.00;8.50;;;-4.30;99.90;-4.70;100835.00;;;;4949821;28;88632;-64
2023/12/04 05:50:11;;;;;;;14.67;9.30;;;-4.10;99.90;-4.60;100821.00;;;;4946948;28;102103;-63
2023/12/04 05:52:37;;;;;;;12.47;8.27;;;-4.10;99.90;-4.50;100828.00;;;;4946561;28;110001;-64
2023/12/04 05:55:03;;;;;;;28.30;11.23;;;-4.00;99.90;-4.40;100814.00;;;;4950569;28;106540;-63
2023/12/04 05:57:29;;;;;;;19.03;10.60;;;-3.90;99.90;-4.40;100812.00;;;;4950018;28;88101;-63
2023/12/04 05:59:54;;;;;;;16.83;10.60;;;-3.90;99.90;-4.30;100813.00;;;;4947820;28;117240;-63
2023/12/04 06:02:20;;;;;;;14.43;9.90;;;-3.80;99.90;-4.30;100797.00;;;;4946968;28;111458;-63
2023/12/04 06:04:46;;;;;;;23.47;13.33;;;-3.80;99.90;-4.20;100791.00;;;;4955256;28;89289;-63
2023/12/04 06:07:12;;;;;;;14.13;8.97;;;-3.70;99.90;-4.20;100787.00;;;;4944117;28;118123;-63
2023/12/04 06:09:37;;;;;;;20.47;9.57;;;-3.50;99.90;-4.10;100780.00;;;;4947520;28;89229;-63
2023/12/04 06:12:08;;;;;;;17.93;10.77;;;-3.60;99.90;-4.00;100767.00;;;;4954137;28;88037;-63
2023/12/04 06:14:34;;;;;;;17.77;9.27;;;-3.50;99.90;-4.00;100774.00;;;;4954943;28;87527;-62
2023/12/04 06:17:03;;;;;;;13.77;9.67;;;-3.50;99.90;-3.90;100771.00;;;;4950327;28;89319;-62
2023/12/04 06:19:29;;;;;;;18.87;11.37;;;-3.40;99.90;-3.90;100771.00;;;;4951054;28;88397;-62
2023/12/04 06:21:55;;;;;;;18.40;10.43;;;-3.30;99.90;-3.80;100778.00;;;;4952348;28;109197;-64
2023/12/04 06:24:21;;;;;;;17.67;9.50;;;-3.30;99.90;-3.70;100785.00;;;;4954207;28;108689;-63
2023/12/04 06:26:50;;;;;;;15.83;9.63;;;-3.20;99.90;-3.70;100769.00;;;;4952590;28;90557;-63
2023/12/04 06:29:16;;;;;;;19.30;10.43;;;-3.20;99.90;-3.70;100777.00;;;;4947117;28;89427;-62
2023/12/04 06:31:42;;;;;;;19.03;10.47;;;-3.10;99.90;-3.60;100767.00;;;;4954938;28;102318;-63
2023/12/04 06:34:08;;;;;;;21.97;11.70;;;-3.10;99.90;-3.60;100767.00;;;;4956224;28;99286;-63
2023/12/04 06:36:38;;;;;;;14.17;9.67;;;-3.00;99.90;-3.50;100763.00;;;;4956820;28;88776;-63
2023/12/04 06:39:10;;;;;;;15.80;9.43;;;-3.00;99.90;-3.50;100773.00;;;;4950822;28;88903;-63
2023/12/04 06:41:36;;;;;;;16.27;7.97;;;-3.00;99.90;-3.50;100755.00;;;;4946502;28;88032;-63
2023/12/04 06:44:02;;;;;;;16.37;8.27;;;-3.00;99.90;-3.40;100762.00;;;;4954691;28;101029;-63
2023/12/04 06:46:30;;;;;;;11.47;7.10;;;-2.90;99.90;-3.40;100762.00;;;;4952261;28;88067;-63
2023/12/04 06:49:00;;;;;;;11.80;6.97;;;-2.90;99.90;-3.30;100760.00;;;;4953563;28;88167;-62
2023/12/04 06:51:25;;;;;;;10.10;6.03;;;-2.80;99.90;-3.20;100758.00;;;;4954206;28;87936;-62
2023/12/04 06:53:51;;;;;;;10.70;6.77;;;-2.80;99.90;-3.10;100757.00;;;;4953823;28;108913;-63
2023/12/04 06:56:17;;;;;;;11.87;7.10;;;-2.70;99.90;-3.10;100759.00;;;;4949862;28;116045;-63
2023/12/04 06:58:42;;;;;;;14.87;8.20;;;-2.70;99.90;-3.00;100762.00;;;;4952996;28;117542;-63
2023/12/04 07:01:08;;;;;;;11.03;8.37;;;-2.80;99.90;-3.00;100763.00;;;;4951764;28;110515;-63
2023/12/04 07:03:33;;;;;;;14.77;9.63;;;-2.60;99.90;-3.00;100762.00;;;;4953657;28;109406;-64
2023/12/04 07:06:00;;;;;;;13.93;9.17;;;-2.60;99.90;-3.00;100778.00;;;;4955321;28;116349;-63
2023/12/04 07:08:25;;;;;;;16.90;10.37;;;-2.50;99.90;-3.00;100765.00;;;;4954660;28;89560;-63
2023/12/04 07:10:51;;;;;;;16.57;11.47;;;-2.70;99.90;-3.00;100784.00;;;;4951406;28;100354;-63
2023/12/04 07:13:17;;;;;;;15.60;8.90;;;-2.60;99.90;-3.00;100771.00;;;;4950628;28;108293;-63
2023/12/04 07:15:42;;;;;;;16.60;10.13;;;-2.60;99.90;-3.00;100789.00;;;;4955512;28;90379;-64
2023/12/04 07:18:08;;;;;;;14.30;8.30;;;-3.30;99.90;-3.00;100770.00;;;;4949911;28;117323;-64
2023/12/04 07:20:34;;;;;;;17.67;8.30;;;-2.50;99.90;-2.90;100769.00;;;;4951213;28;87602;-63
2023/12/04 07:23:00;;;;;;;12.20;7.50;;;-2.50;99.90;-2.90;100763.00;;;;4953186;28;87942;-63
2023/12/04 07:25:25;;;;;;;16.03;8.77;;;-2.50;99.90;-2.80;100762.00;;;;4947119;28;88101;-63
2023/12/04 07:27:51;;;;;;;21.03;11.93;;;-2.40;99.90;-2.80;100767.00;;;;4951482;28;88662;-64
2023/12/04 07:30:17;;;;;;;14.47;8.87;;;-2.50;99.90;-2.80;100766.00;;;;4950478;28;109797;-64
2023/12/04 07:32:42;;;;;;;14.97;8.90;;;-2.30;99.90;-2.70;100770.00;;;;4952190;28;101930;-63
2023/12/04 07:35:08;;;;;;;16.23;8.73;;;-2.30;99.90;-2.70;100774.00;;;;4956659;28;87304;-64
2023/12/04 07:37:34;;;;;;;11.47;7.93;;;-2.30;99.90;-2.60;100749.00;;;;4953753;28;115587;-64
2023/12/04 07:40:00;;;;;;;12.07;6.97;;;-2.20;99.90;-2.60;100765.00;;;;4952062;28;88257;-63
2023/12/04 07:42:25;;;;;;;12.80;5.73;;;-2.20;99.90;-2.50;100760.00;;;;4955319;28;88631;-63
2023/12/04 07:44:51;;;;;;;10.33;4.93;;;-2.20;99.90;-2.50;100760.00;;;;4956062;28;104421;-63
2023/12/04 07:47:17;;;;;;;6.83;4.93;;;-2.00;99.90;-2.40;100760.00;;;;4949344;28;92754;-63
2023/12/04 07:49:44;;;;;;;8.97;5.87;;;-2.00;99.90;-2.40;100766.00;;;;4951500;28;108295;-63
2023/12/04 07:52:11;;;;;;;5.73;4.20;;;-2.00;99.90;-2.30;100757.00;;;;4957683;28;87704;-64
2023/12/04 07:54:37;;;;;;;10.83;5.40;;;-1.80;99.90;-2.20;100763.00;;;;4955862;28;88285;-64
2023/12/04 07:57:03;;;;;;;7.10;3.90;;;-1.90;99.90;-2.20;100754.00;;;;4949273;28;88405;-64
2023/12/04 07:59:29;;;;;;;5.80;3.10;;;-1.90;99.90;-2.20;100757.00;;;;4956297;28;87086;-64
2023/12/04 08:01:54;;;;;;;5.57;4.00;;;-1.80;99.90;-2.10;100753.00;;;;4956644;28;87889;-63
2023/12/04 08:04:20;;;;;;;7.73;4.77;;;-1.70;99.90;-2.10;100761.00;;;;4948972;28;119066;-64
2023/12/04 08:06:46;;;;;;;7.30;4.50;;;-1.70;99.90;-2.00;100747.00;;;;4945302;28;116013;-63
2023/12/04 08:09:12;;;;;;;7.00;4.77;;;-1.70;99.90;-2.00;100749.00;;;;4949307;28;103882;-63
2023/12/04 08:11:37;;;;;;;5.03;4.43;;;-1.60;99.90;-2.00;100737.00;;;;4949472;28;88161;-64
2023/12/04 08:14:04;;;;;;;6.77;4.20;;;-1.60;99.90;-2.00;100745.00;;;;4952800;28;118256;-64
2023/12/04 08:16:29;;;;;;;7.57;4.27;;;-1.60;99.90;-1.90;100736.00;;;;4948291;28;116666;-64
2023/12/04 08:18:56;;;;;;;8.17;4.30;;;-1.50;99.90;-1.90;100732.00;;;;4949742;28;87893;-63
2023/12/04 08:21:21;;;;;;;8.20;4.60;;;-1.50;99.90;-1.90;100738.00;;;;4950345;28;111324;-64
2023/12/04 08:23:47;;;;;;;8.77;4.97;;;-1.50;99.90;-1.80;100731.00;;;;4954701;28;116548;-64
2023/12/04 08:26:15;;;;;;;8.00;4.93;;;-1.40;99.90;-1.80;100723.00;;;;4951717;28;116186;-64
2023/12/04 08:28:41;;;;;;;6.80;3.80;;;-1.40;99.90;-1.80;100737.00;;;;4955831;28;87907;-64
2023/12/04 08:31:09;;;;;;;5.53;4.10;;;-1.40;99.90;-1.70;100730.00;;;;4953293;28;89060;-64
2023/12/04 08:33:34;;;;;;;8.40;5.37;;;-1.30;99.90;-1.70;100725.00;;;;4955866;28;88520;-64
2023/12/04 08:36:00;;;;;;;5.13;3.97;;;-1.40;99.90;-1.70;100720.00;;;;4953292;28;115821;-63
2023/12/04 08:38:26;;;;;;;7.47;4.70;;;-1.30;99.90;-1.70;100724.00;;;;4952920;28;108726;-63
2023/12/04 08:40:53;;;;;;;6.80;4.27;;;-1.30;99.90;-1.70;100719.00;;;;4950553;28;88112;-65
2023/12/04 08:43:19;;;;;;;8.70;5.17;;;-1.30;99.90;-1.60;100726.00;;;;4954744;28;87794;-63
2023/12/04 08:45:45;;;;;;;7.47;5.03;;;-1.20;99.90;-1.60;100731.00;;;;4954286;28;88047;-63
2023/12/04 08:48:11;;;;;;;10.30;5.67;;;-1.20;99.90;-1.50;100733.00;;;;4954379;28;105346;-64
2023/12/04 08:50:37;;;;;;;10.07;4.83;;;-1.20;99.90;-1.50;100728.00;;;;4954865;28;109191;-63
2023/12/04 08:53:04;;;;;;;7.00;4.90;;;-1.20;99.90;-1.40;100745.00;;;;4956147;28;88895;-63
2023/12/04 08:55:30;;;;;;;7.87;4.67;;;-1.00;99.90;-1.40;100737.00;;;;4954538;28;88777;-63
2023/12/04 08:57:55;;;;;;;5.43;3.80;;;-0.90;99.90;-1.40;100742.00;;;;4956948;28;88053;-64
2023/12/04 09:00:21;;;;;;;5.60;4.17;;;-1.00;99.90;-1.30;100728.00;;;;4954537;28;109613;-63
2023/12/04 09:02:50;;;;;;;8.50;4.70;;;0.10;99.90;-1.20;100734.00;;;;4955912;28;117452;-64
2023/12/04 09:05:16;;;;;;;10.13;5.10;;;-0.90;99.90;-1.20;100740.00;;;;4955175;28;116401;-64
2023/12/04 09:07:41;;;;;;;8.43;4.87;;;-0.80;99.90;-1.10;100726.00;;;;4954307;28;87845;-64
2023/12/04 09:10:07;;;;;;;7.00;4.00;;;-0.80;99.90;-1.00;100734.00;;;;4957202;28;108863;-64
2023/12/04 09:12:35;;;;;;;7.57;4.50;;;-0.60;99.90;-1.00;100734.00;;;;4953522;28;117859;-63
2023/12/04 09:15:01;;;;;;;7.87;5.17;;;-0.70;99.90;-0.90;100737.00;;;;4949290;28;88166;-63
2023/12/04 09:17:27;;;;;;;4.80;4.00;;;-0.70;99.90;-0.90;100739.00;;;;4951552;28;87999;-64
2023/12/04 09:19:53;;;;;;;5.10;3.77;;;-0.60;99.90;-0.90;100729.00;;;;4956643;28;88778;-64
2023/12/04 09:22:19;;;;;;;5.17;3.93;;;-0.60;99.90;-0.80;100724.00;;;;4951732;28;116627;-63
2023/12/04 09:24:44;;;;;;;5.43;3.33;;;-0.60;99.90;-0.80;100730.00;;;;4958816;28;88232;-63
2023/12/04 09:27:10;;;;;;;6.23;3.93;;;-0.40;99.90;-0.80;100743.00;;;;4953330;28;87713;-64
2023/12/04 09:29:36;;;;;;;6.03;4.20;;;-0.50;99.90;-0.70;100727.00;;;;4957114;28;109804;-63
2023/12/04 09:32:01;;;;;;;4.60;4.10;;;-0.40;99.90;-0.70;100734.00;;;;4956894;28;117657;-64
2023/12/04 09:34:27;;;;;;;4.03;3.67;;;-0.30;99.90;-0.70;100736.00;;;;4956526;28;117820;-63
2023/12/04 09:36:53;;;;;;;4.93;3.70;;;-0.30;99.90;-0.60;100736.00;;;;4953997;28;110947;-64
2023/12/04 09:39:18;;;;;;;7.13;3.67;;;-0.40;99.90;-0.60;100735.00;;;;4955674;28;108798;-62
2023/12/04 09:41:46;;;;;;;6.37;3.73;;;-0.30;99.90;-0.50;100734.00;;;;4951117;28;117752;-63
2023/12/04 09:44:12;;;;;;;6.17;3.57;;;-0.20;99.90;-0.50;100728.00;;;;4952039;28;88865;-63
2023/12/04 09:46:38;;;;;;;5.90;3.70;;;0.20;99.90;-0.40;100718.00;;;;4954209;28;88194;-63
2023/12/04 09:49:05;;;;;;;5.30;3.90;;;-0.10;99.90;-0.40;100726.00;;;;4948596;28;109373;-62
2023/12/04 09:51:30;;;;;;;4.43;3.33;;;0.00;99.90;-0.30;100718.00;;;;4952858;28;88231;-61
2023/12/04 09:54:00;;;;;;;5.97;3.97;;;0.00;99.90;-0.30;100710.00;;;;4958992;28;88549;-65
2023/12/04 09:56:26;;;;;;;5.90;3.83;;;0.00;99.90;-0.30;100723.00;;;;4949950;28;101808;-65
2023/12/04 09:59:01;;;;;;;6.77;3.70;;;0.10;99.90;-0.20;100715.00;;;;4956781;28;107060;-65
2023/12/04 10:01:30;;;;;;;4.90;3.07;;;0.20;99.90;-0.20;100697.00;;;;4954181;28;87487;-64
2023/12/04 10:03:58;;;;;;;4.27;3.73;;;0.20;99.90;-0.20;100708.00;;;;4953340;28;116648;-63
2023/12/04 10:06:28;;;;;;;5.90;4.17;;;0.10;99.90;-0.20;100691.00;;;;4955522;28;87916;-64
2023/12/04 10:08:57;;;;;;;3.50;2.97;;;0.30;99.90;-0.20;100691.00;;;;4957707;28;89061;-63
2023/12/04 10:11:23;;;;;;;5.00;3.63;;;0.10;99.90;-0.20;100701.00;;;;4952605;28;88672;-63
2023/12/04 10:13:48;;;;;;;4.83;3.00;;;0.10;99.90;-0.20;100699.00;;;;4954453;28;117531;-64
2023/12/04 10:16:35;;;;;;;3.60;3.10;;;0.10;99.90;-0.30;100672.00;;;;4953043;28;110316;-64
2023/12/04 10:19:30;;;;;;;6.63;3.47;;;0.10;99.90;-0.30;100675.00;;;;4952419;28;87844;-64
2023/12/04 10:22:01;;;;;;;7.80;4.27;;;0.20;99.90;-0.30;100675.00;;;;4898299;28;117010;-63
2023/12/04 10:24:35;;;;;;;5.90;3.67;;;0.10;99.90;-0.30;100683.00;;;;4952501;28;88169;-64
2023/12/04 10:27:04;;;;;;;3.70;3.37;;;0.10;99.90;-0.20;100674.00;;;;4950099;28;87349;-64
2023/12/04 10:29:47;;;;;;;5.63;3.53;;;0.10;99.90;-0.20;100677.00;;;;4955566;28;87979;-64
2023/12/04 10:32:14;;;;;;;7.83;3.90;;;0.20;99.90;-0.10;100679.00;;;;4951607;28;88572;-64
2023/12/04 10:34:42;;;;;;;6.17;3.07;;;0.20;99.90;-0.10;100669.00;;;;4950114;28;89275;-64